createdAt,value
2018-09-21T00:02:27.801Z,57.11
2018-09-21T00:04:56.578Z,57.76
2018-09-21T00:07:25.187Z,58.19
2018-09-21T00:09:54.226Z,57.58
2018-09-21T00:12:23.024Z,57.09
2018-09-21T00:14:52.010Z,57.32
2018-09-21T00:17:20.819Z,57.69
2018-09-21T00:19:50.055Z,57.95
2018-09-21T00:22:19.136Z,58.10
2018-09-21T00:24:48.149Z,58.49
2018-09-21T00:27:17.098Z,58.87
2018-09-21T00:29:46.087Z,58.70
2018-09-21T00:32:14.726Z,58.83
2018-09-21T00:34:43.396Z,58.79
2018-09-21T00:37:12.321Z,59.08
2018-09-21T00:39:41.441Z,59.21
2018-09-21T00:42:10.581Z,59.84
2018-09-21T00:44:39.652Z,59.57
2018-09-21T00:47:08.603Z,59.22
2018-09-21T00:49:37.508Z,59.60
2018-09-21T00:52:06.409Z,59.47
2018-09-21T00:54:35.374Z,59.46
2018-09-21T00:57:04.015Z,59.29
2018-09-21T00:59:33.203Z,59.67
2018-09-21T01:02:01.979Z,59.80
2018-09-21T01:04:35.646Z,61.00
2018-09-21T01:07:04.846Z,61.05
2018-09-21T01:09:33.778Z,60.97
2018-09-21T01:12:02.675Z,60.48
2018-09-21T01:14:31.763Z,60.43
2018-09-21T01:17:00.535Z,60.55
2018-09-21T01:19:29.613Z,59.95
2018-09-21T01:21:58.513Z,59.63
2018-09-21T01:24:27.547Z,59.93
2018-09-21T01:26:56.282Z,59.80
2018-09-21T01:29:25.286Z,59.68
2018-09-21T01:31:54.034Z,59.14
2018-09-21T01:34:22.789Z,59.59
2018-09-21T01:36:51.801Z,59.48
2018-09-21T01:39:21.038Z,59.19
2018-09-21T01:41:50.015Z,59.10
2018-09-21T01:44:18.950Z,59.59
2018-09-21T01:46:47.581Z,59.55
2018-09-21T01:49:16.753Z,59.77
2018-09-21T01:51:45.625Z,59.82
2018-09-21T01:54:14.710Z,60.12
2018-09-21T01:56:43.634Z,60.21
2018-09-21T01:59:12.299Z,60.44
2018-09-21T02:01:41.094Z,60.41
2018-09-21T02:04:09.806Z,60.19
2018-09-21T02:06:38.803Z,60.86
2018-09-21T02:09:08.903Z,60.97
2018-09-21T02:11:37.943Z,59.68
2018-09-21T02:14:06.997Z,59.42
2018-09-21T02:16:35.938Z,59.52
2018-09-21T02:19:04.571Z,58.96
2018-09-21T02:21:33.369Z,59.56
2018-09-21T02:24:02.317Z,59.46
2018-09-21T02:26:31.070Z,59.75
2018-09-21T02:28:59.656Z,59.49
2018-09-21T02:31:28.326Z,60.05
2018-09-21T02:33:57.039Z,59.74
2018-09-21T02:36:26.170Z,60.08
2018-09-21T02:38:55.194Z,60.00
2018-09-21T02:41:24.180Z,60.45
2018-09-21T02:43:53.167Z,60.52
2018-09-21T02:46:22.059Z,60.91
2018-09-21T02:48:51.192Z,61.14
2018-09-21T02:51:19.990Z,61.65
2018-09-21T02:53:48.778Z,62.69
2018-09-21T02:56:18.130Z,62.54
2018-09-21T02:58:46.975Z,62.41
2018-09-21T03:01:15.725Z,62.28
2018-09-21T03:03:44.387Z,62.26
2018-09-21T03:06:13.662Z,62.32
2018-09-21T03:08:42.603Z,64.15
2018-09-21T03:11:11.861Z,64.60
2018-09-21T03:13:41.053Z,65.53
2018-09-21T03:16:09.795Z,65.73
2018-09-21T03:18:38.816Z,65.33
2018-09-21T03:21:07.604Z,64.78
2018-09-21T03:23:36.402Z,65.01
2018-09-21T03:26:05.323Z,66.26
2018-09-21T03:28:34.115Z,65.99
2018-09-21T03:31:02.774Z,65.64
2018-09-21T03:33:31.722Z,65.50
2018-09-21T03:36:00.913Z,64.98
2018-09-21T03:38:29.906Z,65.57
2018-09-21T03:40:58.694Z,65.33
2018-09-21T03:43:28.518Z,64.82
2018-09-21T03:45:57.442Z,64.73
2018-09-21T03:48:26.372Z,65.37
2018-09-21T03:50:55.204Z,65.63
2018-09-21T03:53:23.879Z,65.15
2018-09-21T03:55:52.815Z,64.86
2018-09-21T03:58:21.559Z,64.77
2018-09-21T04:00:50.318Z,65.40
2018-09-21T04:03:18.931Z,64.71
2018-09-21T04:05:47.786Z,64.52
2018-09-21T04:08:16.611Z,63.89
2018-09-21T04:10:45.402Z,64.25
2018-09-21T04:13:14.170Z,64.72
2018-09-21T04:18:45.831Z,64.23
2018-09-21T04:21:14.591Z,64.92
2018-09-21T04:23:43.298Z,64.62
2018-09-21T04:26:12.355Z,65.42
2018-09-21T04:28:41.337Z,65.49
2018-09-21T04:31:10.259Z,65.34
2018-09-21T04:33:39.206Z,65.76
2018-09-21T04:36:08.091Z,66.11
2018-09-21T04:38:37.096Z,65.42
2018-09-21T04:41:06.136Z,65.86
2018-09-21T04:43:34.972Z,65.41
2018-09-21T04:46:03.962Z,65.43
2018-09-21T04:48:32.597Z,65.71
2018-09-21T04:51:01.350Z,65.22
2018-09-21T04:53:30.015Z,65.28
2018-09-21T04:55:59.135Z,64.71
2018-09-21T04:58:28.177Z,63.94
2018-09-21T05:00:57.091Z,64.00
2018-09-21T05:03:26.114Z,63.69
2018-09-21T05:05:55.187Z,63.30
2018-09-21T05:08:24.318Z,63.24
2018-09-21T05:10:53.214Z,62.62
2018-09-21T05:13:22.135Z,62.47
2018-09-21T05:15:50.972Z,61.87
2018-09-21T05:18:19.635Z,61.06
2018-09-21T05:20:48.445Z,60.66
2018-09-21T05:23:17.218Z,59.52
2018-09-21T05:25:46.363Z,58.15
2018-09-21T05:28:15.380Z,57.48
2018-09-21T05:30:44.311Z,56.90
2018-09-21T05:33:13.193Z,57.09
2018-09-21T05:35:42.034Z,56.42
2018-09-21T05:38:10.971Z,55.86
2018-09-21T05:40:39.869Z,55.23
2018-09-21T05:43:08.953Z,54.13
2018-09-21T05:45:37.964Z,53.09
2018-09-21T05:48:06.642Z,52.63
2018-09-21T05:50:35.434Z,52.78
2018-09-21T05:53:04.159Z,52.26
2018-09-21T05:55:33.038Z,51.97
2018-09-21T05:58:02.423Z,51.96
2018-09-21T06:00:31.127Z,51.98
2018-09-21T06:03:00.173Z,51.76
2018-09-21T06:05:29.117Z,51.71
2018-09-21T06:07:58.014Z,50.75
2018-09-21T06:10:26.850Z,50.57
2018-09-21T06:12:55.442Z,49.97
2018-09-21T06:15:24.402Z,49.63
2018-09-21T06:17:53.116Z,49.19
2018-09-21T06:20:21.798Z,48.91
2018-09-21T06:22:50.428Z,48.46
2018-09-21T06:25:19.242Z,48.09
2018-09-21T06:27:48.177Z,47.88
2018-09-21T06:30:17.167Z,47.18
2018-09-21T06:32:46.000Z,47.58
2018-09-21T06:35:15.142Z,47.19
2018-09-21T06:37:44.022Z,46.67
2018-09-21T06:40:12.972Z,46.51
2018-09-21T06:42:41.911Z,46.36
2018-09-21T06:45:10.762Z,46.26
2018-09-21T06:47:39.513Z,46.62
2018-09-21T06:50:08.342Z,46.16
2018-09-21T06:52:36.942Z,45.65
2018-09-21T06:55:05.993Z,44.90
2018-09-21T06:57:35.208Z,44.42
2018-09-21T07:00:04.327Z,44.45
2018-09-21T07:02:33.108Z,44.49
2018-09-21T07:05:07.047Z,44.42
2018-09-21T07:07:36.139Z,44.16
2018-09-21T07:10:05.293Z,44.04
2018-09-21T07:12:34.029Z,43.87
2018-09-21T07:15:02.914Z,44.27
2018-09-21T07:17:31.754Z,43.42
2018-09-21T07:20:00.444Z,43.13
2018-09-21T07:22:29.300Z,43.11
2018-09-21T07:24:58.374Z,43.75
2018-09-21T07:27:27.616Z,43.11
2018-09-21T07:29:56.375Z,43.97
2018-09-21T07:32:25.572Z,43.68
2018-09-21T07:34:55.718Z,43.29
2018-09-21T07:37:24.436Z,43.16
2018-09-21T07:39:53.538Z,42.72
2018-09-21T07:42:22.478Z,42.51
2018-09-21T07:44:52.602Z,41.39
2018-09-21T07:47:21.307Z,42.01
2018-09-21T07:49:50.063Z,42.09
2018-09-21T07:52:18.739Z,40.04
2018-09-21T07:54:47.706Z,39.83
2018-09-21T07:57:16.623Z,39.88
2018-09-21T07:59:45.594Z,39.50
2018-09-21T08:02:14.427Z,39.86
2018-09-21T08:04:43.498Z,39.96
2018-09-21T08:07:12.345Z,40.04
2018-09-21T08:09:41.279Z,40.04
2018-09-21T08:12:10.064Z,39.39
2018-09-21T08:14:38.948Z,39.76
2018-09-21T08:17:07.944Z,39.01
2018-09-21T08:19:36.633Z,38.68
2018-09-21T08:22:05.259Z,38.30
2018-09-21T08:24:34.341Z,37.27
2018-09-21T08:27:03.467Z,38.17
2018-09-21T08:29:32.375Z,37.22
2018-09-21T08:32:01.551Z,36.84
2018-09-21T08:34:30.438Z,36.70
2018-09-21T08:36:59.390Z,36.55
2018-09-21T08:39:28.256Z,37.23
2018-09-21T08:41:57.311Z,36.13
2018-09-21T08:44:26.362Z,36.59
2018-09-21T08:46:55.142Z,35.92
2018-09-21T08:49:23.827Z,35.63
2018-09-21T08:51:52.589Z,36.38
2018-09-21T08:54:21.256Z,36.78
2018-09-21T08:56:50.404Z,36.46
2018-09-21T08:59:19.166Z,36.08
2018-09-21T09:01:48.167Z,36.33
2018-09-21T09:04:16.971Z,35.68
2018-09-21T09:06:46.051Z,35.13
2018-09-21T09:09:15.267Z,35.26
2018-09-21T09:11:44.311Z,34.87
2018-09-21T09:14:13.073Z,35.90
2018-09-21T09:16:41.974Z,36.08
2018-09-21T09:19:10.706Z,35.36
2018-09-21T09:21:39.642Z,35.44
2018-09-21T09:24:08.579Z,35.24
2018-09-21T09:26:37.692Z,34.82
2018-09-21T09:29:07.052Z,34.32
2018-09-21T09:31:36.333Z,35.11
2018-09-21T09:34:05.366Z,34.75
2018-09-21T09:36:34.007Z,34.00
2018-09-21T09:39:02.670Z,34.20
2018-09-21T09:41:31.463Z,34.33
2018-09-21T09:44:00.580Z,33.49
2018-09-21T09:46:31.879Z,33.36
2018-09-21T09:49:01.409Z,32.37
2018-09-21T09:51:30.166Z,32.88
2018-09-21T09:53:59.019Z,31.87
2018-09-21T09:56:27.935Z,31.21
2018-09-21T09:58:57.015Z,30.72
2018-09-21T10:01:25.863Z,30.73
2018-09-21T10:03:55.135Z,30.95
2018-09-21T10:06:24.127Z,29.34
2018-09-21T10:08:53.250Z,28.31
2018-09-21T10:11:22.122Z,28.68
2018-09-21T10:13:50.725Z,28.80
2018-09-21T10:16:19.514Z,27.96
2018-09-21T10:18:48.279Z,28.63
2018-09-21T10:21:17.088Z,28.20
2018-09-21T10:23:45.938Z,28.45
2018-09-21T10:26:14.778Z,27.87
2018-09-21T10:28:44.105Z,28.03
2018-09-21T10:31:12.980Z,26.64
2018-09-21T10:33:42.017Z,28.11
2018-09-21T10:36:10.649Z,27.40
2018-09-21T11:49:59.505Z,24.98
2018-09-21T11:52:28.330Z,23.43
2018-09-21T11:54:56.957Z,23.59
2018-09-21T11:57:25.765Z,23.63
2018-09-21T11:59:54.740Z,23.05
2018-09-21T12:02:23.646Z,23.37
2018-09-21T12:04:52.758Z,23.50
2018-09-21T12:09:49.649Z,23.19
2018-09-21T12:12:18.510Z,23.18
2018-09-21T12:14:47.485Z,22.78
2018-09-21T12:17:16.381Z,23.56
2018-09-21T12:19:45.158Z,22.16
2018-09-21T12:22:13.799Z,22.04
2018-09-21T12:24:42.476Z,22.42
2018-09-21T12:27:11.567Z,22.35
2018-09-21T12:29:40.885Z,22.73
2018-09-21T12:32:09.943Z,22.04
2018-09-21T12:34:39.032Z,22.46
2018-09-21T12:37:08.007Z,21.86
2018-09-21T12:39:37.236Z,20.94
2018-09-21T12:42:06.129Z,19.84
2018-09-21T12:44:34.842Z,20.67
2018-09-21T12:47:03.580Z,20.24
2018-09-21T12:49:33.683Z,20.34
2018-09-21T12:52:03.033Z,20.13
2018-09-21T12:54:31.674Z,20.26
2018-09-21T12:57:00.332Z,20.05
2018-09-21T12:59:29.367Z,20.08
2018-09-21T13:01:58.489Z,20.27
2018-09-21T13:04:27.312Z,20.19
2018-09-21T13:06:56.406Z,20.44
2018-09-21T13:09:25.251Z,19.96
2018-09-21T13:11:54.067Z,20.22
2018-09-21T13:14:22.898Z,19.29
2018-09-21T13:16:51.517Z,19.08
2018-09-21T13:19:20.474Z,18.65
2018-09-21T13:21:49.690Z,19.01
2018-09-21T13:24:18.424Z,18.47
2018-09-21T13:26:47.371Z,18.78
2018-09-21T13:29:16.243Z,18.82
2018-09-21T13:31:44.861Z,18.31
2018-09-21T13:34:13.665Z,18.60
2018-09-21T13:36:42.449Z,18.66
2018-09-21T13:39:12.512Z,18.39
2018-09-21T13:41:41.426Z,18.12
2018-09-21T13:44:10.092Z,17.34
2018-09-21T13:46:38.910Z,17.35
2018-09-21T13:49:08.015Z,17.15
2018-09-21T13:51:36.910Z,16.80
2018-09-21T13:54:05.661Z,17.15
2018-09-21T13:56:36.334Z,17.82
2018-09-21T13:59:05.248Z,18.17
2018-09-21T14:01:33.863Z,17.84
2018-09-21T14:04:02.802Z,17.90
2018-09-21T14:06:31.696Z,17.94
2018-09-21T14:09:00.431Z,18.21
2018-09-21T14:11:29.011Z,17.50
2018-09-21T14:13:57.634Z,17.69
2018-09-21T14:16:26.346Z,17.55
2018-09-21T14:18:55.363Z,17.77
2018-09-21T14:21:23.987Z,16.84
2018-09-21T14:23:52.794Z,17.86
2018-09-21T14:26:22.226Z,17.16
2018-09-21T14:28:51.060Z,17.23
2018-09-21T14:31:19.939Z,16.68
2018-09-21T14:33:49.273Z,16.51
2018-09-21T14:36:18.287Z,16.32
2018-09-21T14:38:47.501Z,16.20
2018-09-21T14:41:16.411Z,16.47
2018-09-21T14:43:45.147Z,16.11
2018-09-21T14:46:13.851Z,16.25
2018-09-21T14:48:42.950Z,17.40
2018-09-21T14:51:11.843Z,17.07
2018-09-21T14:53:40.675Z,16.24
2018-09-21T14:56:09.619Z,15.79
2018-09-21T14:58:38.422Z,16.48
2018-09-21T15:01:07.271Z,16.71
2018-09-21T15:03:36.201Z,17.27
2018-09-21T15:06:04.959Z,18.12
2018-09-21T15:08:33.937Z,18.00
2018-09-21T15:11:02.999Z,18.34
2018-09-21T15:13:31.758Z,19.50
2018-09-21T15:16:00.543Z,19.93
2018-09-21T15:18:29.750Z,19.98
2018-09-21T15:20:58.743Z,20.55
2018-09-21T15:23:27.770Z,22.15
2018-09-21T15:25:56.741Z,22.44
2018-09-21T15:28:25.478Z,22.49
2018-09-21T15:30:54.372Z,23.03
2018-09-21T15:33:23.189Z,23.88
2018-09-21T15:35:52.252Z,23.20
2018-09-21T15:38:21.302Z,23.78
2018-09-21T15:40:50.010Z,23.27
2018-09-21T15:43:19.003Z,24.03
2018-09-21T15:45:48.051Z,24.38
2018-09-21T15:48:16.935Z,24.55
2018-09-21T15:50:46.075Z,24.45
2018-09-21T15:53:14.974Z,25.37
2018-09-21T15:55:44.075Z,25.45
2018-09-21T15:58:13.006Z,25.42
2018-09-21T16:00:42.171Z,25.39
2018-09-21T16:03:11.208Z,25.60
2018-09-21T16:05:39.988Z,26.72
2018-09-21T16:08:08.740Z,26.59
2018-09-21T16:10:37.500Z,28.00
2018-09-21T16:13:06.283Z,27.31
2018-09-21T16:15:34.999Z,27.91
2018-09-21T16:18:03.839Z,28.47
2018-09-21T16:20:32.930Z,29.47
2018-09-21T16:23:01.875Z,29.53
2018-09-21T16:25:31.131Z,29.64
2018-09-21T16:28:00.014Z,30.29
2018-09-21T16:30:29.052Z,31.42
2018-09-21T16:32:58.310Z,31.99
2018-09-21T16:35:27.156Z,32.18
2018-09-21T16:37:56.067Z,32.57
2018-09-21T16:40:24.927Z,33.46
2018-09-21T16:42:53.581Z,33.04
2018-09-21T16:45:22.479Z,32.97
2018-09-21T16:47:51.291Z,33.36
2018-09-21T16:50:20.501Z,34.76
2018-09-21T16:52:49.498Z,34.58
2018-09-21T16:55:18.414Z,34.44
2018-09-21T16:57:47.388Z,34.70
2018-09-21T17:00:16.538Z,34.67
2018-09-21T17:02:45.332Z,34.85
2018-09-21T17:05:14.146Z,34.99
2018-09-21T17:07:43.254Z,35.46
2018-09-21T17:10:12.000Z,34.81
2018-09-21T17:12:40.846Z,35.38
2018-09-21T17:15:09.822Z,35.44
2018-09-21T17:17:38.652Z,35.86
2018-09-21T17:20:07.589Z,35.83
2018-09-21T17:22:36.640Z,35.76
2018-09-21T17:25:05.507Z,35.34
2018-09-21T17:27:34.488Z,35.72
2018-09-21T17:30:03.531Z,36.31
2018-09-21T17:32:32.330Z,36.13
2018-09-21T17:35:03.888Z,36.66
2018-09-21T17:37:33.150Z,36.01
2018-09-21T17:40:01.814Z,35.42
2018-09-21T17:42:30.573Z,35.77
2018-09-21T17:44:59.374Z,35.34
2018-09-21T17:47:28.276Z,35.02
2018-09-21T17:49:56.978Z,34.59
2018-09-21T17:52:25.931Z,34.07
2018-09-21T17:54:55.103Z,33.88
2018-09-21T17:57:24.122Z,33.90
2018-09-21T17:59:52.940Z,34.11
2018-09-21T18:02:21.721Z,41.53
2018-09-21T18:04:50.471Z,43.09
2018-09-21T18:07:19.985Z,42.39
2018-09-21T18:09:49.746Z,42.02
2018-09-21T18:12:18.499Z,42.87
2018-09-21T18:14:47.483Z,43.22
2018-09-21T18:17:16.430Z,42.95
2018-09-21T18:19:45.115Z,43.85
2018-09-21T18:22:13.993Z,43.85
2018-09-21T18:24:42.821Z,46.07
2018-09-21T18:27:11.775Z,46.02
2018-09-21T18:29:40.886Z,45.28
2018-09-21T18:32:09.758Z,44.86
2018-09-21T18:34:38.870Z,44.52
2018-09-21T18:37:07.563Z,45.47
2018-09-21T18:39:36.580Z,45.06
2018-09-21T18:42:05.375Z,45.14
2018-09-21T18:44:34.219Z,45.36
2018-09-21T18:47:03.146Z,46.38
2018-09-21T18:49:31.938Z,46.63
2018-09-21T18:52:00.750Z,46.66
2018-09-21T18:54:29.627Z,46.09
2018-09-21T18:56:58.645Z,46.87
2018-09-21T18:59:27.373Z,46.57
2018-09-21T19:01:56.399Z,46.28
2018-09-21T19:04:25.385Z,46.81
2018-09-21T19:06:54.120Z,47.49
2018-09-21T19:09:22.695Z,46.91
2018-09-21T19:11:51.321Z,46.49
2018-09-21T19:14:20.308Z,47.50
2018-09-21T19:16:49.267Z,46.98
2018-09-21T19:19:18.096Z,46.76
2018-09-21T19:21:46.719Z,47.32
2018-09-21T19:24:15.674Z,47.13
2018-09-21T19:26:44.880Z,46.93
2018-09-21T19:29:13.858Z,47.78
2018-09-21T19:31:42.873Z,47.38
2018-09-21T19:34:11.601Z,47.67
2018-09-21T19:36:40.400Z,47.66
2018-09-21T19:39:10.928Z,47.13
2018-09-21T19:41:39.538Z,47.56
2018-09-21T19:44:08.374Z,47.76
2018-09-21T19:46:37.445Z,48.33
2018-09-21T19:49:06.517Z,48.34
2018-09-21T19:51:35.267Z,49.54
2018-09-21T19:54:04.080Z,50.04
2018-09-21T19:56:33.090Z,50.52
2018-09-21T19:59:01.976Z,50.94
2018-09-21T20:01:30.984Z,50.91
2018-09-21T20:04:00.067Z,51.49
2018-09-21T20:06:28.842Z,51.97
2018-09-21T20:08:57.526Z,51.58
2018-09-21T20:11:26.154Z,51.19
2018-09-21T20:13:55.379Z,51.93
2018-09-21T20:16:24.222Z,53.21
2018-09-21T20:18:53.119Z,53.78
2018-09-21T20:21:21.794Z,54.63
2018-09-21T20:23:50.777Z,54.69
2018-09-21T20:26:19.752Z,54.47
2018-09-21T20:28:48.893Z,54.77
2018-09-21T20:31:22.796Z,54.72
2018-09-21T20:33:51.791Z,55.23
2018-09-21T20:36:20.512Z,55.16
2018-09-21T20:38:49.146Z,53.86
2018-09-21T20:41:18.035Z,55.78
2018-09-21T20:43:46.921Z,56.76
2018-09-21T20:46:17.058Z,56.30
2018-09-21T20:48:46.063Z,56.47
2018-09-21T20:51:14.856Z,56.95
2018-09-21T20:53:43.496Z,56.30
2018-09-21T20:56:12.455Z,57.59
2018-09-21T20:58:41.201Z,57.56
2018-09-21T21:01:10.277Z,57.16
2018-09-21T21:03:39.110Z,57.42
2018-09-21T21:06:08.151Z,57.06
2018-09-21T21:08:37.256Z,57.63
2018-09-21T21:11:06.407Z,58.33
2018-09-21T21:13:35.248Z,58.88
2018-09-21T21:16:04.061Z,58.48
2018-09-21T21:18:32.706Z,58.57
2018-09-21T21:21:01.945Z,58.61
2018-09-21T21:23:30.778Z,58.75
2018-09-21T21:25:59.645Z,58.30
2018-09-21T21:28:28.866Z,58.00
2018-09-21T21:30:57.813Z,58.66
2018-09-21T21:33:27.107Z,58.84
2018-09-21T21:35:55.768Z,58.20
2018-09-21T21:38:24.560Z,57.79
2018-09-21T21:40:53.302Z,57.85
2018-09-21T21:43:22.431Z,58.88
2018-09-21T21:45:51.126Z,58.47
2018-09-21T21:48:19.922Z,59.10
2018-09-21T21:50:48.745Z,59.17
2018-09-21T21:53:17.655Z,58.88
2018-09-21T21:55:46.783Z,58.81
2018-09-21T21:58:15.699Z,58.78
2018-09-21T22:00:49.723Z,60.04
2018-09-21T22:03:18.538Z,59.52
2018-09-21T22:05:47.368Z,59.59
2018-09-21T22:08:16.125Z,59.06
2018-09-21T22:10:45.256Z,60.20
2018-09-21T22:13:19.083Z,60.23
2018-09-21T22:15:47.843Z,59.41
2018-09-21T22:18:16.671Z,59.25
2018-09-21T22:20:45.540Z,59.34
2018-09-21T22:23:14.569Z,60.35
2018-09-21T22:25:43.507Z,60.20
2018-09-21T22:28:12.535Z,60.76
2018-09-21T22:30:41.438Z,60.98
2018-09-21T22:33:10.213Z,61.52
2018-09-21T22:35:38.867Z,61.08
2018-09-21T22:38:07.640Z,60.73
2018-09-21T22:40:36.646Z,61.33
2018-09-21T22:43:05.655Z,61.02
2018-09-21T22:45:34.706Z,60.03
2018-09-21T22:48:03.635Z,60.93
2018-09-21T22:50:32.583Z,61.16
2018-09-21T22:53:01.408Z,61.45
2018-09-21T22:55:30.158Z,61.68
2018-09-21T22:57:58.983Z,61.73
2018-09-21T23:00:27.852Z,61.22
2018-09-21T23:02:56.538Z,61.55
2018-09-21T23:05:25.184Z,62.20
2018-09-21T23:07:53.854Z,62.06
2018-09-21T23:10:22.803Z,61.86
2018-09-21T23:12:51.546Z,61.13
2018-09-21T23:15:20.323Z,62.17
2018-09-21T23:17:49.163Z,61.54
2018-09-21T23:20:18.306Z,61.60
2018-09-21T23:22:47.102Z,61.95
2018-09-21T23:25:16.229Z,61.61
2018-09-21T23:27:45.242Z,61.40
2018-09-21T23:30:14.279Z,61.29
2018-09-21T23:32:42.840Z,61.42
2018-09-21T23:35:11.551Z,61.37
2018-09-21T23:37:40.203Z,61.53
2018-09-21T23:40:09.271Z,62.34
2018-09-21T23:42:38.161Z,62.03
2018-09-21T23:45:07.544Z,62.05
2018-09-21T23:47:36.410Z,62.36
2018-09-21T23:50:05.280Z,62.08
2018-09-21T23:52:34.177Z,61.73
2018-09-21T23:55:03.134Z,61.81
2018-09-21T23:57:31.883Z,61.34
